Upstream stations:
Downstream station:
SHEF ID: WANO2 Cimarron River near Waynoka, OK
STATION TYPE:
Regulating: Stage = 9.00, Flow = 4005
PRECIP STAGE RIV-FLOW BAT-LOAD
in ft cfs volt
Ccp-Rev Ccp-Rev Ccp-Rev Ccp-Rev
(US/Central)
01/26 00:00 0.00 5.65 36 12.65
01/26 01:00 0.00 5.65 36 12.65
01/26 02:00 0.00 5.65 36 12.65
01/26 03:00 0.00 5.65 36 12.65
01/26 04:00 0.00 5.65 36 12.65
01/26 05:00 0.00 5.65 36 12.57
01/26 06:00 0.00 5.65 36 12.57
01/26 07:00 0.00 5.65 36 12.57
01/26 08:00 0.00 5.65 36 12.49
01/26 09:00 0.00 5.65 36 12.49
01/26 10:00 0.00 5.65 36 12.65
01/26 11:00 0.00 5.62 31 13.21
01/26 12:00 0.00 5.63 32 13.68
01/26 13:00 0.00 5.65 36 13.84
01/26 14:00 0.00 5.61 29 13.92
01/26 15:00 0.00 5.62 31 13.92
01/26 16:00 0.00 5.64 34 13.76
01/26 17:00 0.00 5.64 34 13.53
01/26 18:00 0.00 5.64 34 13.21
01/26 19:00 0.00 5.62 31 12.89
01/26 20:00 0.00 5.62 31 12.81
01/26 21:00 0.00 5.64 34 12.73
01/26 22:00 0.00 5.65 36 12.73
01/26 23:00 0.00 5.64 34 12.73